Informes METAR cercanos


LEVC - Manises, Valencia, ESPAÑA
Distance from station: NNE 72km
Actualización: 19/02/2018 06:30
Despejado
Despejado
 Viento del O
Viento: O 6 km/h
Temperatura: 6°C
Rocío: 5°C
Humedad: 93%
Barómetro: 1017 hPa
Resumen: Despejado
Visibility: Mas de 10 km
2018/02/19 05:30 LEVC 190530Z 28003KT CAVOK 06/05 Q1017 NOSIG
LEAL - El Altet, Alicante, ESPAÑA
Distance from station: S 70km
Actualización: 19/02/2018 06:30
Despejado
Despejado
 Viento del O
Viento: O 4 km/h
Temperatura: 8°C
Rocío: 7°C
Humedad: 93%
Barómetro: 1017 hPa
Resumen: Despejado
Visibility: Mas de 10 km
2018/02/19 05:30 LEAL 190530Z 28002KT CAVOK 08/07 Q1017 NOSIG
 
LELC - San Javier, Murcia, ESPAÑA
Distance from station: SSO 188km
Actualización: 18/02/2018 22:00
NOT Current
Light drizzle, Muy nuboso
Light drizzle, Muy nuboso
 Viento del NE
Viento: NE 7 km/h
Temperatura: 14°C
Rocío: 12°C
Humedad: 88%
Barómetro: 1020 hPa
Resumen: Light Drizzle
Clouds: Muy nuboso
Visibility: 10 km
Cloud details: Parcialmente nuboso 396 m
Muy nuboso 549 m
Muy nuboso 853 m
2018/02/18 21:00 LELC 182100Z 04004KT 360V070 9999 -DZ SCT013 BKN018 BKN028 14/12 Q1020 NOSIG
LEAB - Los Llanos, Albacete, ESPAÑA
Distance from station: O 143km
Actualización: 19/02/2018 06:00
Despejado
Despejado
 Viento del SO
Viento: SO 6 km/h
Temperatura: 0°C
Rocío: -1°C
Humedad: 93%
Barómetro: 1018 hPa
Resumen: Despejado
Visibility: Mas de 10 km
2018/02/19 05:00 LEAB 190500Z 22003KT CAVOK M00/M01 Q1018 NOSIG